createdAt,value
2023-12-15T00:00:06.401Z,101144.80
2023-12-15T00:02:36.080Z,101151.30
2023-12-15T00:05:05.649Z,101151.40
2023-12-15T00:07:34.435Z,101151.56
2023-12-15T00:10:03.389Z,101159.78
2023-12-15T00:12:32.074Z,101166.77
2023-12-15T00:15:00.657Z,101172.10
2023-12-15T00:17:29.036Z,101172.33
2023-12-15T00:19:57.581Z,101174.08
2023-12-15T00:22:25.915Z,101176.95
2023-12-15T00:24:54.954Z,101182.68
2023-12-15T00:27:23.289Z,101182.60
2023-12-15T00:29:51.704Z,101192.80
2023-12-15T00:32:20.296Z,101201.56
2023-12-15T00:34:49.064Z,101207.08
2023-12-15T00:37:17.662Z,101209.89
2023-12-15T00:39:45.933Z,101215.94
2023-12-15T00:42:14.250Z,101216.41
2023-12-15T00:44:42.917Z,101223.60
2023-12-15T00:47:11.500Z,101222.14
2023-12-15T00:49:39.774Z,101231.90
2023-12-15T00:52:08.331Z,101235.82
2023-12-15T00:54:36.929Z,101237.42
2023-12-15T00:57:05.688Z,101240.77
2023-12-15T00:59:34.437Z,101239.27
2023-12-15T01:02:05.609Z,101239.89
2023-12-15T01:04:34.451Z,101243.13
2023-12-15T01:07:03.106Z,101250.04
2023-12-15T01:09:31.524Z,101256.64
2023-12-15T01:12:00.415Z,101260.41
2023-12-15T01:14:29.144Z,101262.17
2023-12-15T01:16:57.597Z,101264.23
2023-12-15T01:19:28.777Z,101270.04
2023-12-15T01:21:57.975Z,101267.02
2023-12-15T01:24:26.312Z,101269.89
2023-12-15T01:26:54.903Z,101272.96
2023-12-15T01:29:23.376Z,101278.55
2023-12-15T01:31:51.768Z,101284.23
2023-12-15T01:34:20.719Z,101283.77
2023-12-15T01:36:49.618Z,101285.56
2023-12-15T01:39:18.307Z,101285.74
2023-12-15T01:41:46.790Z,101289.87
2023-12-15T01:44:15.200Z,101293.48
2023-12-15T01:46:44.172Z,101305.85
2023-12-15T01:49:12.590Z,101308.17
2023-12-15T01:51:41.417Z,101312.05
2023-12-15T01:54:09.794Z,101310.63
2023-12-15T01:56:38.693Z,101313.61
2023-12-15T01:59:07.061Z,101318.89
2023-12-15T02:01:35.455Z,101326.83
2023-12-15T02:04:03.956Z,101325.73
2023-12-15T02:06:32.296Z,101331.71
2023-12-15T02:09:01.209Z,101335.79
2023-12-15T02:11:30.024Z,101337.53
2023-12-15T02:13:58.482Z,101347.72
2023-12-15T02:16:26.861Z,101345.48
2023-12-15T02:18:55.307Z,101344.74
2023-12-15T02:21:24.159Z,101349.30
2023-12-15T02:23:52.398Z,101354.81
2023-12-15T02:26:20.911Z,101349.55
2023-12-15T02:28:49.439Z,101357.82
2023-12-15T02:31:19.266Z,101360.61
2023-12-15T02:33:48.072Z,101362.39
2023-12-15T02:36:20.305Z,101362.90
2023-12-15T02:38:48.930Z,101362.31
2023-12-15T02:41:17.646Z,101359.89
2023-12-15T02:43:46.032Z,101368.80
2023-12-15T02:46:14.472Z,101368.27
2023-12-15T02:48:42.855Z,101374.94
2023-12-15T02:51:11.598Z,101373.67
2023-12-15T02:53:40.841Z,101379.55
2023-12-15T02:56:10.769Z,101375.45
2023-12-15T02:58:40.106Z,101378.97
2023-12-15T03:01:08.475Z,101384.05
2023-12-15T03:03:37.332Z,101376.60
2023-12-15T03:06:06.890Z,101380.83
2023-12-15T03:08:35.330Z,101379.76
2023-12-15T03:11:03.994Z,101382.91
2023-12-15T03:13:32.652Z,101395.45
2023-12-15T03:16:06.569Z,101403.77
2023-12-15T03:18:34.983Z,101428.29
2023-12-15T03:21:03.571Z,101418.28
2023-12-15T03:23:32.473Z,101430.27
2023-12-15T03:26:01.031Z,101445.32
2023-12-15T03:28:31.926Z,101448.17
2023-12-15T03:31:02.913Z,101453.02
2023-12-15T03:33:37.231Z,101453.95
2023-12-15T03:36:08.277Z,101461.64
2023-12-15T03:38:36.763Z,101474.77
2023-12-15T03:41:07.153Z,101468.80
2023-12-15T03:43:36.139Z,101475.05
2023-12-15T03:46:05.729Z,101479.62
2023-12-15T03:48:34.203Z,101480.23
2023-12-15T03:51:03.060Z,101485.25
2023-12-15T03:53:31.946Z,101481.88
2023-12-15T03:56:00.403Z,101479.11
2023-12-15T03:58:28.750Z,101487.41
2023-12-15T04:00:57.149Z,101494.74
2023-12-15T04:03:25.601Z,101493.65
2023-12-15T04:05:54.008Z,101498.22
2023-12-15T04:08:22.514Z,101494.05
2023-12-15T04:10:50.907Z,101498.04
2023-12-15T04:13:19.278Z,101502.86
2023-12-15T04:15:49.876Z,101499.94
2023-12-15T04:18:18.314Z,101502.86
2023-12-15T04:20:46.772Z,101502.75
2023-12-15T04:23:16.896Z,101506.03
2023-12-15T04:25:45.594Z,101512.02
2023-12-15T04:28:14.050Z,101512.92
2023-12-15T04:30:42.317Z,101513.41
2023-12-15T04:33:11.041Z,101514.23
2023-12-15T04:35:39.433Z,101518.40
2023-12-15T04:38:07.975Z,101516.09
2023-12-15T04:40:36.335Z,101527.61
2023-12-15T04:43:04.723Z,101538.21
2023-12-15T04:45:34.525Z,101544.48
2023-12-15T04:48:03.401Z,101543.55
2023-12-15T04:50:32.944Z,101547.37
2023-12-15T04:53:02.692Z,101553.24
2023-12-15T04:55:31.045Z,101554.63
2023-12-15T04:57:59.762Z,101558.96
2023-12-15T05:00:28.307Z,101565.59
2023-12-15T05:02:56.892Z,101560.40
2023-12-15T05:05:25.373Z,101562.77
2023-12-15T05:07:54.268Z,101566.71
2023-12-15T05:10:22.790Z,101563.44
2023-12-15T05:12:51.373Z,101565.43
2023-12-15T05:15:20.937Z,101571.59
2023-12-15T05:17:50.430Z,101578.41
2023-12-15T05:20:20.622Z,101581.63
2023-12-15T05:22:49.201Z,101579.29
2023-12-15T05:25:17.648Z,101582.00
2023-12-15T05:27:45.961Z,101584.27
2023-12-15T05:30:15.383Z,101580.30
2023-12-15T05:32:44.433Z,101578.41
2023-12-15T05:35:12.922Z,101587.87
2023-12-15T05:37:41.444Z,101591.55
2023-12-15T05:40:13.047Z,101588.11
2023-12-15T05:42:41.338Z,101597.29
2023-12-15T05:45:11.597Z,101600.77
2023-12-15T05:47:41.366Z,101603.02
2023-12-15T05:50:13.522Z,101601.34
2023-12-15T05:52:41.949Z,101604.09
2023-12-15T05:55:10.529Z,101603.98
2023-12-15T05:57:39.662Z,101609.48
2023-12-15T06:00:10.737Z,101612.04
2023-12-15T06:02:39.380Z,101609.06
2023-12-15T06:05:08.711Z,101614.79
2023-12-15T06:07:37.398Z,101616.39
2023-12-15T06:10:08.134Z,101621.55
2023-12-15T06:12:36.425Z,101616.34
2023-12-15T06:15:12.443Z,101625.92
2023-12-15T06:17:43.176Z,101621.70
2023-12-15T06:20:14.495Z,101624.45
2023-12-15T06:22:43.191Z,101630.09
2023-12-15T06:25:14.564Z,101635.14
2023-12-15T06:27:42.923Z,101637.40
2023-12-15T06:30:14.096Z,101642.26
2023-12-15T06:32:42.581Z,101647.58
2023-12-15T06:35:11.068Z,101645.61
2023-12-15T06:37:39.685Z,101654.54
2023-12-15T06:40:10.096Z,101659.42
2023-12-15T06:42:38.839Z,101661.70
2023-12-15T06:45:09.898Z,101660.63
2023-12-15T06:47:39.287Z,101660.39
2023-12-15T06:50:10.158Z,101667.15
2023-12-15T06:52:39.254Z,101670.52
2023-12-15T06:55:08.706Z,101671.43
2023-12-15T06:57:37.607Z,101674.45
2023-12-15T07:00:08.712Z,101679.55
2023-12-15T07:02:37.423Z,101675.64
2023-12-15T07:05:08.168Z,101677.13
2023-12-15T07:07:37.443Z,101680.11
2023-12-15T07:10:08.303Z,101683.67
2023-12-15T07:12:36.711Z,101686.73
2023-12-15T07:15:06.972Z,101695.25
2023-12-15T07:17:35.690Z,101694.44
2023-12-15T07:20:06.284Z,101692.80
2023-12-15T07:22:34.657Z,101696.39
2023-12-15T07:25:03.238Z,101700.08
2023-12-15T07:27:31.507Z,101703.05
2023-12-15T07:29:59.921Z,101706.38
2023-12-15T07:32:28.524Z,101714.90
2023-12-15T07:34:58.321Z,101714.55
2023-12-15T07:37:26.612Z,101716.47
2023-12-15T07:39:56.414Z,101721.55
2023-12-15T07:42:24.772Z,101722.38
2023-12-15T07:44:53.208Z,101717.29
2023-12-15T07:47:21.471Z,101721.21
2023-12-15T07:49:49.864Z,101725.23
2023-12-15T07:52:18.146Z,101729.58
2023-12-15T07:54:46.946Z,101733.44
2023-12-15T07:57:16.271Z,101732.66
2023-12-15T07:59:44.787Z,101734.67
2023-12-15T08:02:13.111Z,101728.33
2023-12-15T08:04:42.046Z,101733.99
2023-12-15T08:07:11.479Z,101738.92
2023-12-15T08:09:40.146Z,101740.38
2023-12-15T08:12:10.056Z,101743.48
2023-12-15T08:14:38.495Z,101738.95
2023-12-15T08:17:06.998Z,101742.77
2023-12-15T08:19:35.579Z,101745.32
2023-12-15T08:22:04.302Z,101749.45
2023-12-15T08:24:32.966Z,101757.61
2023-12-15T08:27:01.840Z,101760.77
2023-12-15T08:29:30.273Z,101760.17
2023-12-15T08:31:58.849Z,101760.70
2023-12-15T08:34:28.552Z,101763.31
2023-12-15T08:36:57.146Z,101772.04
2023-12-15T08:39:25.526Z,101781.98
2023-12-15T08:41:53.955Z,101782.23
2023-12-15T08:44:29.266Z,101783.88
2023-12-15T08:47:02.760Z,101786.92
2023-12-15T08:49:31.375Z,101788.75
2023-12-15T08:51:59.760Z,101801.12
2023-12-15T08:54:28.801Z,101803.35
2023-12-15T08:56:57.323Z,101804.67
2023-12-15T08:59:25.810Z,101799.55
2023-12-15T09:01:54.599Z,101790.86
2023-12-15T09:04:23.491Z,101788.26
2023-12-15T09:06:53.067Z,101793.28
2023-12-15T09:09:22.460Z,101795.08
2023-12-15T09:11:50.820Z,101793.69
2023-12-15T09:14:22.039Z,101803.40
2023-12-15T09:16:50.496Z,101816.70
2023-12-15T09:19:19.145Z,101822.02
2023-12-15T09:21:48.041Z,101823.98
2023-12-15T09:24:18.468Z,101830.44
2023-12-15T09:26:47.167Z,101830.53
2023-12-15T09:29:16.289Z,101833.85
2023-12-15T09:31:44.843Z,101833.18
2023-12-15T09:34:14.289Z,101836.49
2023-12-15T09:36:43.532Z,101841.65
2023-12-15T09:39:12.971Z,101837.27
2023-12-15T09:41:41.392Z,101832.10
2023-12-15T09:44:09.733Z,101838.33
2023-12-15T09:46:38.655Z,101835.14
2023-12-15T09:49:07.132Z,101840.29
2023-12-15T09:51:38.214Z,101837.27
2023-12-15T09:54:06.932Z,101838.10
2023-12-15T09:56:35.204Z,101840.90
2023-12-15T09:59:04.266Z,101839.14
2023-12-15T10:01:34.224Z,101839.20
2023-12-15T10:04:03.108Z,101843.39
2023-12-15T10:06:34.944Z,101838.98
2023-12-15T10:09:03.997Z,101837.91
2023-12-15T10:11:35.109Z,101835.39
2023-12-15T10:14:05.261Z,101837.80
2023-12-15T10:16:33.802Z,101840.36
2023-12-15T10:19:04.653Z,101857.52
2023-12-15T10:21:33.877Z,101857.94
2023-12-15T10:24:19.054Z,101856.80
2023-12-15T10:26:47.541Z,101856.95
2023-12-15T10:29:16.027Z,101854.95
2023-12-15T10:31:44.424Z,101853.36
2023-12-15T10:34:12.775Z,101847.63
2023-12-15T10:36:45.420Z,101844.70
2023-12-15T10:39:14.338Z,101851.80
2023-12-15T10:41:43.364Z,101852.80
2023-12-15T10:44:13.033Z,101855.65
2023-12-15T10:46:43.048Z,101865.23
2023-12-15T10:49:13.861Z,101870.60
2023-12-15T10:51:44.187Z,101864.70
2023-12-15T10:54:12.458Z,101860.56
2023-12-15T10:56:40.804Z,101859.69
2023-12-15T10:59:10.067Z,101860.43
2023-12-15T11:01:40.910Z,101856.64
2023-12-15T11:04:20.195Z,101850.64
2023-12-15T11:06:49.384Z,101853.42
2023-12-15T11:09:36.192Z,101854.04
2023-12-15T11:12:29.675Z,101857.64
2023-12-15T11:15:03.801Z,101851.89
2023-12-15T11:17:31.610Z,101840.18
2023-12-15T11:20:06.810Z,101847.22
2023-12-15T11:22:54.425Z,101858.70
2023-12-15T11:25:31.183Z,101859.96
2023-12-15T11:28:00.471Z,101865.80
2023-12-15T11:30:36.878Z,101870.55
2023-12-15T11:33:40.519Z,101877.85
2023-12-15T11:36:10.134Z,101888.58
2023-12-15T11:38:39.888Z,101893.45
2023-12-15T11:41:11.341Z,101895.76
2023-12-15T11:43:44.032Z,101897.92
2023-12-15T11:46:12.621Z,101905.14
2023-12-15T11:48:42.242Z,101906.79
2023-12-15T11:51:11.041Z,101905.84
2023-12-15T11:53:42.156Z,101906.11
2023-12-15T11:56:12.012Z,101909.85
2023-12-15T11:58:40.797Z,101914.52
2023-12-15T12:01:09.417Z,101912.66
2023-12-15T12:03:37.872Z,101909.63
2023-12-15T12:06:09.235Z,101915.71
2023-12-15T12:08:37.907Z,101917.06
2023-12-15T12:11:09.310Z,101914.20
2023-12-15T12:13:40.166Z,101916.14
2023-12-15T12:16:08.859Z,101907.86
2023-12-15T12:18:37.552Z,101912.23
2023-12-15T12:21:08.314Z,101922.08
2023-12-15T12:23:43.352Z,101918.76
2023-12-15T12:26:15.668Z,101922.95
2023-12-15T12:28:48.948Z,101917.12
2023-12-15T12:31:17.318Z,101916.05
2023-12-15T12:33:46.160Z,101918.28
2023-12-15T12:36:15.521Z,101913.64
2023-12-15T12:38:43.932Z,101910.48
2023-12-15T12:41:13.101Z,101911.33
2023-12-15T12:43:42.170Z,101918.06
2023-12-15T12:46:12.143Z,101916.36
2023-12-15T12:48:41.203Z,101910.37
2023-12-15T12:51:09.835Z,101908.16
2023-12-15T12:53:38.244Z,101911.91
2023-12-15T12:56:08.217Z,101923.01
2023-12-15T12:58:36.825Z,101924.81
2023-12-15T13:01:05.859Z,101923.95
2023-12-15T13:03:34.385Z,101927.19
2023-12-15T13:06:03.057Z,101932.13
2023-12-15T13:08:31.844Z,101934.73
2023-12-15T13:11:00.614Z,101936.34
2023-12-15T13:13:29.125Z,101935.95
2023-12-15T13:15:57.550Z,101933.62
2023-12-15T13:18:26.097Z,101931.24
2023-12-15T13:20:54.631Z,101933.64
2023-12-15T13:23:23.514Z,101931.10
2023-12-15T13:25:52.371Z,101931.13
2023-12-15T13:28:21.390Z,101934.63
2023-12-15T13:30:50.574Z,101935.86
2023-12-15T13:33:19.238Z,101938.86
2023-12-15T13:35:48.521Z,101942.08
2023-12-15T13:38:18.418Z,101946.14
2023-12-15T13:40:47.024Z,101945.81
2023-12-15T13:43:15.394Z,101944.16
2023-12-15T13:45:50.604Z,101948.23
2023-12-15T13:48:22.675Z,101943.74
2023-12-15T13:50:51.287Z,101942.81
2023-12-15T13:53:20.063Z,101940.00
2023-12-15T13:55:48.620Z,101942.02
2023-12-15T13:58:20.451Z,101938.39
2023-12-15T14:00:49.372Z,101941.74
2023-12-15T14:03:17.893Z,101944.40
2023-12-15T14:05:46.307Z,101943.50
2023-12-15T14:08:20.126Z,101944.61
2023-12-15T14:10:49.083Z,101941.88
2023-12-15T14:13:17.590Z,101939.69
2023-12-15T14:15:47.364Z,101936.62
2023-12-15T14:18:15.953Z,101939.56
2023-12-15T14:20:44.484Z,101937.25
2023-12-15T14:23:13.549Z,101934.95
2023-12-15T14:25:43.606Z,101939.60
2023-12-15T14:28:12.278Z,101941.85
2023-12-15T14:30:41.654Z,101947.66
2023-12-15T14:33:10.304Z,101949.55
2023-12-15T14:35:38.968Z,101950.73
2023-12-15T14:38:09.261Z,101958.29
2023-12-15T14:40:37.699Z,101959.27
2023-12-15T14:43:06.500Z,101951.38
2023-12-15T14:45:34.868Z,101949.37
2023-12-15T14:48:19.598Z,101954.08
2023-12-15T14:50:50.442Z,101955.40
2023-12-15T14:53:18.961Z,101955.96
2023-12-15T14:55:47.606Z,101952.86
2023-12-15T14:58:16.610Z,101953.66
2023-12-15T15:00:45.174Z,101955.67
2023-12-15T15:03:14.499Z,101953.92
2023-12-15T15:05:44.711Z,101953.34
2023-12-15T15:08:14.352Z,101953.10
2023-12-15T15:10:42.874Z,101954.04
2023-12-15T15:13:11.170Z,101959.23
2023-12-15T15:15:39.500Z,101958.98
2023-12-15T15:18:07.925Z,101968.04
2023-12-15T15:20:36.351Z,101963.88
2023-12-15T15:23:04.853Z,101962.66
2023-12-15T15:25:33.168Z,101959.46
2023-12-15T15:28:01.480Z,101961.23
2023-12-15T15:30:30.159Z,101961.45
2023-12-15T15:32:58.650Z,101962.16
2023-12-15T15:35:28.846Z,101964.98
2023-12-15T15:37:58.255Z,101965.14
2023-12-15T15:40:26.547Z,101963.67
2023-12-15T15:42:54.955Z,101968.91
2023-12-15T15:45:23.800Z,101966.02
2023-12-15T15:47:54.734Z,101964.05
2023-12-15T15:50:23.085Z,101960.73
2023-12-15T15:52:52.314Z,101960.50
2023-12-15T15:55:20.891Z,101962.23
2023-12-15T15:57:49.736Z,101964.12
2023-12-15T16:00:20.862Z,101971.77
2023-12-15T16:02:51.446Z,101974.48
2023-12-15T16:05:21.114Z,101973.80
2023-12-15T16:07:50.086Z,101970.79
2023-12-15T16:10:18.524Z,101972.03
2023-12-15T16:12:47.128Z,101974.56
2023-12-15T16:15:17.199Z,101974.33
2023-12-15T16:17:46.197Z,101974.59
2023-12-15T16:20:14.763Z,101971.99
2023-12-15T16:22:43.145Z,101980.71
2023-12-15T16:25:11.568Z,101983.91
2023-12-15T16:27:41.566Z,101987.81
2023-12-15T16:30:14.205Z,101985.19
2023-12-15T16:32:43.631Z,101989.45
2023-12-15T16:35:12.176Z,101988.98
2023-12-15T16:37:41.682Z,101993.45
2023-12-15T16:40:12.131Z,101990.05
2023-12-15T16:42:45.025Z,101995.48
2023-12-15T16:45:14.444Z,102002.18
2023-12-15T16:47:44.073Z,102006.48
2023-12-15T16:50:12.956Z,102001.67
2023-12-15T16:52:41.438Z,102004.88
2023-12-15T16:55:10.469Z,102007.56
2023-12-15T16:57:40.521Z,102004.20
2023-12-15T17:00:12.296Z,102007.73
2023-12-15T17:02:42.187Z,102012.58
2023-12-15T17:05:10.936Z,102017.70
2023-12-15T17:07:39.480Z,102013.80
2023-12-15T17:10:09.219Z,102013.68
2023-12-15T17:12:37.772Z,102011.34
2023-12-15T17:15:08.941Z,102014.39
2023-12-15T17:17:39.464Z,102018.39
2023-12-15T17:20:11.466Z,102014.34
2023-12-15T17:22:40.552Z,102015.87
2023-12-15T17:25:11.697Z,102019.77
2023-12-15T17:27:41.160Z,102026.69
2023-12-15T17:30:12.032Z,102023.11
2023-12-15T17:32:42.734Z,102024.19
2023-12-15T17:35:11.714Z,102021.85
2023-12-15T17:37:40.085Z,102020.89
2023-12-15T17:40:10.679Z,102021.42
2023-12-15T17:42:39.210Z,102022.27
2023-12-15T17:45:09.820Z,102032.46
2023-12-15T17:47:38.491Z,102040.18
2023-12-15T17:50:09.008Z,102039.02
2023-12-15T17:52:37.494Z,102045.20
2023-12-15T17:55:07.177Z,102043.06
2023-12-15T17:57:36.157Z,102051.84
2023-12-15T18:00:07.488Z,102050.33
2023-12-15T18:02:35.852Z,102050.83
2023-12-15T18:05:05.108Z,102055.00
2023-12-15T18:07:33.433Z,102055.33
2023-12-15T18:10:02.017Z,102054.33
2023-12-15T18:12:30.414Z,102057.55
2023-12-15T18:14:58.917Z,102056.33
2023-12-15T18:17:27.428Z,102064.17
2023-12-15T18:19:55.984Z,102072.06
2023-12-15T18:22:24.509Z,102066.95
2023-12-15T18:24:52.970Z,102069.06
2023-12-15T18:27:23.143Z,102076.98
2023-12-15T18:29:52.261Z,102079.64
2023-12-15T18:32:20.633Z,102080.70
2023-12-15T18:34:49.086Z,102080.19
2023-12-15T18:37:18.322Z,102080.81
2023-12-15T18:39:47.598Z,102080.77
2023-12-15T18:42:17.106Z,102085.51
2023-12-15T18:44:45.850Z,102088.30
2023-12-15T18:47:15.353Z,102091.41
2023-12-15T18:49:43.969Z,102092.77
2023-12-15T18:52:13.757Z,102101.59
2023-12-15T18:54:43.691Z,102107.73
2023-12-15T18:57:12.997Z,102107.98
2023-12-15T18:59:41.829Z,102105.32
2023-12-15T19:02:11.573Z,102105.74
2023-12-15T19:04:41.437Z,102099.15
2023-12-15T19:07:10.158Z,102095.39
2023-12-15T19:09:39.190Z,102101.89
2023-12-15T19:12:08.590Z,102106.32
2023-12-15T19:14:38.833Z,102099.75
2023-12-15T19:17:07.413Z,102102.34
2023-12-15T19:19:35.899Z,102105.98
2023-12-15T19:22:06.771Z,102108.54
2023-12-15T19:24:35.223Z,102109.15
2023-12-15T19:27:04.462Z,102112.66
2023-12-15T19:29:32.849Z,102111.14
2023-12-15T19:32:01.821Z,102119.60
2023-12-15T19:34:30.385Z,102120.13
2023-12-15T19:37:00.805Z,102120.58
2023-12-15T19:39:29.113Z,102120.89
2023-12-15T19:41:57.612Z,102119.08
2023-12-15T19:44:28.413Z,102119.38
2023-12-15T19:46:56.765Z,102122.84
2023-12-15T19:49:28.732Z,102122.05
2023-12-15T19:51:58.139Z,102122.19
2023-12-15T19:54:26.434Z,102122.64
2023-12-15T19:56:54.903Z,102127.41
2023-12-15T19:59:25.212Z,102128.23
2023-12-15T20:01:56.563Z,102127.63
2023-12-15T20:04:25.114Z,102128.28
2023-12-15T20:06:53.681Z,102131.46
2023-12-15T20:09:22.131Z,102127.39
2023-12-15T20:11:50.593Z,102131.42
2023-12-15T20:14:18.940Z,102129.94
2023-12-15T20:16:47.234Z,102133.64
2023-12-15T20:19:15.825Z,102135.55
2023-12-15T20:21:44.310Z,102138.91
2023-12-15T20:24:13.843Z,102138.37
2023-12-15T20:26:43.433Z,102137.94
2023-12-15T20:29:12.097Z,102141.59
2023-12-15T20:31:44.298Z,102140.30
2023-12-15T20:34:13.220Z,102138.16
2023-12-15T20:36:41.794Z,102137.09
2023-12-15T20:39:15.535Z,102139.55
2023-12-15T20:41:43.913Z,102134.42
2023-12-15T20:44:14.834Z,102133.98
2023-12-15T20:46:45.995Z,102138.28
2023-12-15T20:49:14.633Z,102137.10
2023-12-15T20:51:43.418Z,102138.88
2023-12-15T20:54:13.303Z,102133.42
2023-12-15T20:56:42.778Z,102135.17
2023-12-15T20:59:11.645Z,102134.31
2023-12-15T21:01:40.195Z,102133.91
2023-12-15T21:04:08.758Z,102135.30
2023-12-15T21:06:37.294Z,102134.02
2023-12-15T21:09:06.087Z,102128.89
2023-12-15T21:11:35.901Z,102128.17
2023-12-15T21:14:04.660Z,102126.77
2023-12-15T21:16:34.872Z,102121.77
2023-12-15T21:19:03.356Z,102124.47
2023-12-15T21:21:34.661Z,102128.21
2023-12-15T21:24:03.874Z,102136.33
2023-12-15T21:26:32.946Z,102145.17
2023-12-15T21:29:01.281Z,102143.75
2023-12-15T21:31:31.712Z,102140.26
2023-12-15T21:34:00.536Z,102134.91
2023-12-15T21:36:29.075Z,102134.55
2023-12-15T21:38:57.486Z,102141.89
2023-12-15T21:41:27.114Z,102149.16
2023-12-15T21:43:55.911Z,102162.96
2023-12-15T21:46:24.292Z,102169.17
2023-12-15T21:48:55.656Z,102168.50
2023-12-15T21:51:27.177Z,102169.23
2023-12-15T21:53:55.590Z,102162.48
2023-12-15T21:56:23.888Z,102159.83
2023-12-15T21:58:54.399Z,102167.17
2023-12-15T22:01:23.156Z,102169.30
2023-12-15T22:03:52.886Z,102181.52
2023-12-15T22:06:21.879Z,102173.40
2023-12-15T22:08:50.540Z,102163.98
2023-12-15T22:11:19.069Z,102161.35
2023-12-15T22:13:47.392Z,102159.49
2023-12-15T22:16:15.858Z,102161.06
2023-12-15T22:18:44.427Z,102165.23
2023-12-15T22:21:13.464Z,102165.38
2023-12-15T22:23:41.920Z,102163.74
2023-12-15T22:26:13.557Z,102160.89
2023-12-15T22:28:42.744Z,102158.34
2023-12-15T22:31:11.284Z,102157.40
2023-12-15T22:33:40.548Z,102155.25
2023-12-15T22:36:09.650Z,102156.33
2023-12-15T22:38:39.424Z,102153.20
2023-12-15T22:41:12.959Z,102163.15
2023-12-15T22:43:42.345Z,102170.60
2023-12-15T22:46:10.866Z,102181.06
2023-12-15T22:48:42.386Z,102180.39
2023-12-15T22:51:11.033Z,102188.75
2023-12-15T22:53:39.591Z,102195.85
2023-12-15T22:56:10.310Z,102200.95
2023-12-15T22:58:38.941Z,102199.45
2023-12-15T23:01:07.856Z,102209.02
2023-12-15T23:03:37.892Z,102210.65
2023-12-15T23:06:07.253Z,102210.10
2023-12-15T23:08:35.844Z,102206.39
2023-12-15T23:11:04.842Z,102203.21
2023-12-15T23:13:34.301Z,102197.92
2023-12-15T23:16:03.144Z,102193.55
2023-12-15T23:18:31.898Z,102193.01
2023-12-15T23:21:07.079Z,102188.20
2023-12-15T23:23:40.877Z,102194.52
2023-12-15T23:26:09.974Z,102193.34
2023-12-15T23:28:38.636Z,102200.71
2023-12-15T23:31:07.809Z,102207.33
2023-12-15T23:33:36.481Z,102206.44
2023-12-15T23:36:11.741Z,102212.10
2023-12-15T23:38:41.333Z,102217.91
2023-12-15T23:41:09.888Z,102216.33
2023-12-15T23:43:38.288Z,102219.16
2023-12-15T23:46:06.673Z,102221.03
2023-12-15T23:48:35.283Z,102218.98
2023-12-15T23:51:04.744Z,102218.97
2023-12-15T23:53:33.202Z,102217.19
2023-12-15T23:56:01.798Z,102221.52
2023-12-15T23:58:31.668Z,102219.89
